createdAt,value
2023-08-29T00:01:20.970Z,49.79
2023-08-29T00:03:48.826Z,49.50
2023-08-29T00:06:16.188Z,49.50
2023-08-29T00:08:43.564Z,49.45
2023-08-29T00:11:10.839Z,49.57
2023-08-29T00:13:38.190Z,49.44
2023-08-29T00:16:06.583Z,49.40
2023-08-29T00:18:33.926Z,49.51
2023-08-29T00:21:01.190Z,49.23
2023-08-29T00:23:28.865Z,49.28
2023-08-29T00:25:56.153Z,49.25
2023-08-29T00:28:24.599Z,48.98
2023-08-29T00:30:52.204Z,49.33
2023-08-29T00:33:19.536Z,49.31
2023-08-29T00:35:50.008Z,48.99
2023-08-29T00:38:17.486Z,49.28
2023-08-29T00:40:45.560Z,49.26
2023-08-29T00:43:13.073Z,48.83
2023-08-29T00:45:40.957Z,49.16
2023-08-29T00:48:09.970Z,48.80
2023-08-29T00:50:39.118Z,49.07
2023-08-29T00:53:07.815Z,49.08
2023-08-29T00:55:35.955Z,49.00
2023-08-29T00:58:04.864Z,49.11
2023-08-29T01:00:33.704Z,49.33
2023-08-29T01:03:04.140Z,49.07
2023-08-29T01:05:34.207Z,48.92
2023-08-29T01:08:04.042Z,48.70
2023-08-29T01:10:58.575Z,48.86
2023-08-29T01:13:49.838Z,49.11
2023-08-29T01:16:22.761Z,49.11
2023-08-29T01:18:53.195Z,49.16
2023-08-29T01:21:48.548Z,49.05
2023-08-29T01:24:31.700Z,49.10
2023-08-29T01:27:01.922Z,49.08
2023-08-29T01:29:30.043Z,48.85
2023-08-29T01:31:58.880Z,49.12
2023-08-29T01:34:27.218Z,49.08
2023-08-29T01:36:54.560Z,48.82
2023-08-29T01:39:22.452Z,48.79
2023-08-29T01:41:49.747Z,48.81
2023-08-29T01:44:17.097Z,48.86
2023-08-29T01:46:44.454Z,48.82
2023-08-29T01:49:13.171Z,48.88
2023-08-29T01:51:40.712Z,48.96
2023-08-29T01:54:08.157Z,49.02
2023-08-29T01:56:40.881Z,48.88
2023-08-29T01:59:09.693Z,48.91
2023-08-29T02:01:37.294Z,49.05
2023-08-29T02:04:05.039Z,49.06
2023-08-29T02:06:32.374Z,48.65
2023-08-29T02:08:59.765Z,48.94
2023-08-29T02:11:27.598Z,48.75
2023-08-29T02:13:59.064Z,49.04
2023-08-29T02:16:26.577Z,48.86
2023-08-29T02:18:54.282Z,48.83
2023-08-29T02:21:21.629Z,48.72
2023-08-29T02:23:48.955Z,48.67
2023-08-29T02:26:16.375Z,48.83
2023-08-29T02:28:43.737Z,48.99
2023-08-29T02:31:11.716Z,48.88
2023-08-29T02:33:39.737Z,48.72
2023-08-29T02:36:07.626Z,48.88
2023-08-29T02:38:35.523Z,48.64
2023-08-29T02:41:03.263Z,48.70
2023-08-29T02:43:30.802Z,48.98
2023-08-29T02:45:59.562Z,48.74
2023-08-29T02:48:28.461Z,48.98
2023-08-29T02:50:55.792Z,48.83
2023-08-29T02:53:23.415Z,48.78
2023-08-29T02:55:52.530Z,49.00
2023-08-29T02:58:22.547Z,48.95
2023-08-29T03:01:00.114Z,48.74
2023-08-29T03:03:28.109Z,49.06
2023-08-29T03:05:56.947Z,48.99
2023-08-29T03:08:25.465Z,48.69
2023-08-29T03:10:54.085Z,48.87
2023-08-29T03:13:22.692Z,49.00
2023-08-29T03:15:50.263Z,48.95
2023-08-29T03:18:18.371Z,48.75
2023-08-29T03:20:46.461Z,48.77
2023-08-29T03:23:13.878Z,48.86
2023-08-29T03:25:41.296Z,48.76
2023-08-29T03:28:10.050Z,48.97
2023-08-29T03:30:37.603Z,48.73
2023-08-29T03:33:05.194Z,48.85
2023-08-29T03:35:32.720Z,48.55
2023-08-29T03:38:00.777Z,48.44
2023-08-29T03:40:28.039Z,48.54
2023-08-29T03:42:55.366Z,48.62
2023-08-29T03:45:23.154Z,48.59
2023-08-29T03:47:50.676Z,48.54
2023-08-29T03:50:21.614Z,48.38
2023-08-29T03:52:49.445Z,48.40
2023-08-29T03:55:17.260Z,48.07
2023-08-29T03:57:44.602Z,48.05
2023-08-29T04:00:12.572Z,48.05
2023-08-29T04:02:43.758Z,48.16
2023-08-29T04:05:15.837Z,47.88
2023-08-29T04:07:43.799Z,48.01
2023-08-29T04:10:14.116Z,47.69
2023-08-29T04:12:41.476Z,47.99
2023-08-29T04:15:09.514Z,47.96
2023-08-29T04:17:36.826Z,47.89
2023-08-29T04:20:09.315Z,47.63
2023-08-29T04:22:37.085Z,47.61
2023-08-29T04:25:05.698Z,47.93
2023-08-29T04:27:33.028Z,47.73
2023-08-29T04:30:00.335Z,47.87
2023-08-29T04:32:27.686Z,47.87
2023-08-29T04:34:55.145Z,48.05
2023-08-29T04:37:22.428Z,48.34
2023-08-29T04:39:49.756Z,48.14
2023-08-29T04:42:17.824Z,48.34
2023-08-29T04:44:47.921Z,47.99
2023-08-29T04:47:16.497Z,48.17
2023-08-29T04:49:44.231Z,48.31
2023-08-29T04:52:11.546Z,48.13
2023-08-29T04:54:38.831Z,48.47
2023-08-29T04:57:06.739Z,48.13
2023-08-29T04:59:34.980Z,48.43
2023-08-29T05:02:02.413Z,48.50
2023-08-29T05:04:29.681Z,48.42
2023-08-29T05:06:57.135Z,48.46
2023-08-29T05:09:25.678Z,48.51
2023-08-29T05:11:52.966Z,48.54
2023-08-29T05:14:20.371Z,48.89
2023-08-29T05:16:47.930Z,48.64
2023-08-29T05:19:15.267Z,48.85
2023-08-29T05:21:42.674Z,48.77
2023-08-29T05:24:11.723Z,48.88
2023-08-29T05:26:39.138Z,48.97
2023-08-29T05:29:06.532Z,48.89
2023-08-29T05:31:33.870Z,49.07
2023-08-29T05:34:01.221Z,49.24
2023-08-29T05:36:28.675Z,49.18
2023-08-29T05:38:55.941Z,48.98
2023-08-29T05:41:23.342Z,49.03
2023-08-29T05:43:50.682Z,49.06
2023-08-29T05:46:18.026Z,49.34
2023-08-29T05:48:45.356Z,49.07
2023-08-29T05:51:12.713Z,49.17
2023-08-29T05:53:40.005Z,49.26
2023-08-29T05:56:07.302Z,49.42
2023-08-29T05:58:34.694Z,49.28
2023-08-29T06:01:01.976Z,49.18
2023-08-29T06:03:29.398Z,49.59
2023-08-29T06:05:56.922Z,49.69
2023-08-29T06:08:24.646Z,49.95
2023-08-29T06:10:52.165Z,49.99
2023-08-29T06:13:19.491Z,50.08
2023-08-29T06:15:46.828Z,50.05
2023-08-29T06:18:14.172Z,50.09
2023-08-29T06:20:41.512Z,50.00
2023-08-29T06:23:08.829Z,50.00
2023-08-29T06:25:36.841Z,50.05
2023-08-29T06:28:04.633Z,50.14
2023-08-29T06:30:32.609Z,49.96
2023-08-29T06:33:00.101Z,49.87
2023-08-29T06:35:27.504Z,49.69
2023-08-29T06:37:56.797Z,49.65
2023-08-29T06:40:24.095Z,49.73
2023-08-29T06:42:51.383Z,49.59
2023-08-29T06:45:18.744Z,49.62
2023-08-29T06:47:46.082Z,49.61
2023-08-29T06:50:13.715Z,49.72
2023-08-29T06:52:41.042Z,49.89
2023-08-29T06:55:10.850Z,49.97
2023-08-29T06:57:38.318Z,49.75
2023-08-29T07:00:06.139Z,49.60
2023-08-29T07:02:33.511Z,49.54
2023-08-29T07:05:00.894Z,49.51
2023-08-29T07:07:28.160Z,49.42
2023-08-29T07:09:55.963Z,49.44
2023-08-29T07:12:23.306Z,49.53
2023-08-29T07:14:50.628Z,49.52
2023-08-29T07:17:18.650Z,49.30
2023-08-29T07:19:46.076Z,49.71
2023-08-29T07:24:44.985Z,50.59
2023-08-29T07:27:12.360Z,51.29
2023-08-29T07:29:39.636Z,51.40
2023-08-29T07:32:07.339Z,51.34
2023-08-29T07:34:35.739Z,51.33
2023-08-29T07:37:03.949Z,51.25
2023-08-29T07:39:31.407Z,51.53
2023-08-29T07:41:58.768Z,51.34
2023-08-29T07:44:26.097Z,51.61
2023-08-29T07:47:11.817Z,51.43
2023-08-29T07:49:40.791Z,51.35
2023-08-29T07:52:08.110Z,51.06
2023-08-29T07:54:35.373Z,50.86
2023-08-29T07:57:02.822Z,50.90
2023-08-29T07:59:30.169Z,50.68
2023-08-29T08:01:57.592Z,50.54
2023-08-29T08:04:25.191Z,50.41
2023-08-29T08:06:53.802Z,50.46
2023-08-29T08:09:21.210Z,50.18
2023-08-29T08:11:48.643Z,50.40
2023-08-29T08:14:18.407Z,50.37
2023-08-29T08:16:45.841Z,50.55
2023-08-29T08:19:13.981Z,50.49
2023-08-29T08:21:41.280Z,50.44
2023-08-29T08:24:09.364Z,50.42
2023-08-29T08:26:36.802Z,50.28
2023-08-29T08:29:05.621Z,50.10
2023-08-29T08:31:33.802Z,50.17
2023-08-29T08:34:01.879Z,50.33
2023-08-29T08:36:30.066Z,50.19
2023-08-29T08:38:57.447Z,50.24
2023-08-29T08:41:25.543Z,50.21
2023-08-29T08:43:53.091Z,50.31
2023-08-29T08:46:20.779Z,50.11
2023-08-29T08:48:48.636Z,50.19
2023-08-29T08:51:17.342Z,50.17
2023-08-29T08:53:44.851Z,50.27
2023-08-29T08:56:12.330Z,50.20
2023-08-29T08:58:39.801Z,50.18
2023-08-29T09:01:07.168Z,50.23
2023-08-29T09:03:36.253Z,50.28
2023-08-29T09:06:05.371Z,50.23
2023-08-29T09:08:35.421Z,50.36
2023-08-29T09:11:03.165Z,50.37
2023-08-29T09:13:31.331Z,50.16
2023-08-29T09:16:00.530Z,50.44
2023-08-29T09:18:30.301Z,50.43
2023-08-29T09:21:01.931Z,50.43
2023-08-29T09:23:30.993Z,50.60
2023-08-29T09:26:01.139Z,50.43
2023-08-29T09:28:30.519Z,50.63
2023-08-29T09:31:06.945Z,50.53
2023-08-29T09:33:35.397Z,50.47
2023-08-29T09:36:04.011Z,50.38
2023-08-29T09:38:35.654Z,50.56
2023-08-29T09:41:03.413Z,50.55
2023-08-29T09:43:31.176Z,50.54
2023-08-29T09:45:59.484Z,50.56
2023-08-29T09:48:29.233Z,50.43
2023-08-29T09:50:59.540Z,50.48
2023-08-29T09:53:29.863Z,50.49
2023-08-29T09:56:06.657Z,50.55
2023-08-29T09:58:34.290Z,50.52
2023-08-29T10:01:06.000Z,50.56
2023-08-29T10:03:35.775Z,50.74
2023-08-29T10:06:08.315Z,51.06
2023-08-29T10:08:45.645Z,50.76
2023-08-29T10:11:13.196Z,50.87
2023-08-29T10:13:42.565Z,50.69
2023-08-29T10:16:10.645Z,50.64
2023-08-29T10:18:39.805Z,50.79
2023-08-29T10:21:07.153Z,50.94
2023-08-29T10:23:36.535Z,51.10
2023-08-29T10:26:04.132Z,51.02
2023-08-29T10:28:32.398Z,51.34
2023-08-29T10:31:03.154Z,51.38
2023-08-29T10:33:30.941Z,51.20
2023-08-29T10:35:58.490Z,51.45
2023-08-29T10:38:27.696Z,51.32
2023-08-29T10:41:07.945Z,51.43
2023-08-29T10:43:36.611Z,51.57
2023-08-29T10:46:13.217Z,51.50
2023-08-29T10:48:40.598Z,51.70
2023-08-29T10:51:15.910Z,51.69
2023-08-29T10:53:54.530Z,51.62
2023-08-29T10:56:29.150Z,51.76
2023-08-29T10:58:57.179Z,51.73
2023-08-29T11:01:28.302Z,51.90
2023-08-29T11:04:12.596Z,51.83
2023-08-29T11:06:55.611Z,51.96
2023-08-29T11:09:24.824Z,51.92
2023-08-29T11:12:12.061Z,51.83
2023-08-29T11:14:57.969Z,51.92
2023-08-29T11:17:27.507Z,52.06
2023-08-29T11:20:07.111Z,51.84
2023-08-29T11:22:34.489Z,52.00
2023-08-29T11:25:02.472Z,52.05
2023-08-29T11:27:37.920Z,52.11
2023-08-29T11:30:22.123Z,52.67
2023-08-29T11:32:53.397Z,52.61
2023-08-29T11:35:21.647Z,52.56
2023-08-29T11:37:51.974Z,52.56
2023-08-29T11:40:23.501Z,53.13
2023-08-29T11:43:17.743Z,53.22
2023-08-29T11:45:49.325Z,53.29
2023-08-29T11:48:28.069Z,53.31
2023-08-29T11:50:56.808Z,53.34
2023-08-29T11:53:44.364Z,53.18
2023-08-29T11:56:11.900Z,53.15
2023-08-29T11:58:41.622Z,53.04
2023-08-29T12:01:09.443Z,53.13
2023-08-29T12:03:38.358Z,53.10
2023-08-29T12:06:14.011Z,53.13
2023-08-29T12:08:42.117Z,53.06
2023-08-29T12:11:14.687Z,53.01
2023-08-29T12:13:58.439Z,52.95
2023-08-29T12:16:25.736Z,52.86
2023-08-29T12:19:07.673Z,52.60
2023-08-29T12:21:34.947Z,52.81
2023-08-29T12:24:12.596Z,52.82
2023-08-29T12:26:40.679Z,52.66
2023-08-29T12:29:08.276Z,52.90
2023-08-29T12:31:35.731Z,52.66
2023-08-29T12:34:03.117Z,52.69
2023-08-29T12:36:30.773Z,52.36
2023-08-29T12:38:58.181Z,52.47
2023-08-29T12:41:25.674Z,52.53
2023-08-29T12:43:53.207Z,52.28
2023-08-29T12:46:20.594Z,52.49
2023-08-29T12:48:48.016Z,52.50
2023-08-29T12:51:16.612Z,52.38
2023-08-29T12:53:45.397Z,52.25
2023-08-29T12:56:13.475Z,52.36
2023-08-29T12:58:40.792Z,52.45
2023-08-29T13:01:08.515Z,52.46
2023-08-29T13:03:36.040Z,52.33
2023-08-29T13:06:03.959Z,52.28
2023-08-29T13:08:31.221Z,52.50
2023-08-29T13:10:58.609Z,52.56
2023-08-29T13:13:26.204Z,52.53
2023-08-29T13:15:53.649Z,52.35
2023-08-29T13:18:23.285Z,52.50
2023-08-29T13:20:50.598Z,52.56
2023-08-29T13:23:17.978Z,52.47
2023-08-29T13:25:45.429Z,52.75
2023-08-29T13:28:12.869Z,53.29
2023-08-29T13:30:43.091Z,53.48
2023-08-29T13:33:10.538Z,53.73
2023-08-29T13:35:38.314Z,53.78
2023-08-29T13:38:06.764Z,53.83
2023-08-29T13:40:34.351Z,54.05
2023-08-29T13:43:01.851Z,54.09
2023-08-29T13:45:29.222Z,54.10
2023-08-29T13:47:56.785Z,54.14
2023-08-29T13:50:24.635Z,53.93
2023-08-29T13:52:51.932Z,54.06
2023-08-29T13:55:19.375Z,54.41
2023-08-29T13:57:47.349Z,54.45
2023-08-29T14:00:15.342Z,54.55
2023-08-29T14:02:42.823Z,54.46
2023-08-29T14:05:10.712Z,54.54
2023-08-29T14:07:38.127Z,54.28
2023-08-29T14:10:06.818Z,54.28
2023-08-29T14:12:34.186Z,54.12
2023-08-29T14:15:01.831Z,54.07
2023-08-29T14:17:30.186Z,54.11
2023-08-29T14:20:06.090Z,54.24
2023-08-29T14:22:33.787Z,54.43
2023-08-29T14:25:01.276Z,54.39
2023-08-29T14:27:28.517Z,54.37
2023-08-29T14:29:56.399Z,54.07
2023-08-29T14:32:23.730Z,54.07
2023-08-29T14:34:50.968Z,54.20
2023-08-29T14:37:18.369Z,54.28
2023-08-29T14:39:45.908Z,54.36
2023-08-29T14:42:13.683Z,54.24
2023-08-29T14:44:42.370Z,54.17
2023-08-29T14:47:10.912Z,54.15
2023-08-29T14:49:38.588Z,54.11
2023-08-29T14:52:06.431Z,54.12
2023-08-29T14:54:33.831Z,54.18
2023-08-29T14:57:01.378Z,54.21
2023-08-29T14:59:28.969Z,54.34
2023-08-29T15:01:56.437Z,54.46
2023-08-29T15:04:23.780Z,54.31
2023-08-29T15:06:51.176Z,54.15
2023-08-29T15:09:18.562Z,53.92
2023-08-29T15:11:45.912Z,53.88
2023-08-29T15:14:13.207Z,53.69
2023-08-29T15:16:40.615Z,53.61
2023-08-29T15:19:07.950Z,53.69
2023-08-29T15:21:35.297Z,53.74
2023-08-29T15:24:03.923Z,53.64
2023-08-29T15:26:31.496Z,53.80
2023-08-29T15:28:58.827Z,53.60
2023-08-29T15:31:26.222Z,53.40
2023-08-29T15:33:53.522Z,53.19
2023-08-29T15:36:24.961Z,53.07
2023-08-29T15:38:52.940Z,52.98
2023-08-29T15:41:20.321Z,53.05
2023-08-29T15:43:48.138Z,53.23
2023-08-29T15:46:15.453Z,53.23
2023-08-29T15:48:42.781Z,53.22
2023-08-29T15:51:10.041Z,53.42
2023-08-29T15:53:37.483Z,53.54
2023-08-29T15:56:06.254Z,53.91
2023-08-29T15:58:35.052Z,53.78
2023-08-29T16:01:08.940Z,53.84
2023-08-29T16:03:36.421Z,53.82
2023-08-29T16:06:07.248Z,53.67
2023-08-29T16:08:35.162Z,53.55
2023-08-29T16:11:02.669Z,53.46
2023-08-29T16:13:29.968Z,53.52
2023-08-29T16:15:57.868Z,53.65
2023-08-29T16:18:25.328Z,53.55
2023-08-29T16:20:53.995Z,53.58
2023-08-29T16:23:21.510Z,53.26
2023-08-29T16:25:51.534Z,53.51
2023-08-29T16:28:24.107Z,53.50
2023-08-29T16:30:51.395Z,53.57
2023-08-29T16:33:18.858Z,53.35
2023-08-29T16:35:46.141Z,53.34
2023-08-29T16:38:13.546Z,53.27
2023-08-29T16:40:40.999Z,53.36
2023-08-29T16:43:08.346Z,53.27
2023-08-29T16:45:36.033Z,53.15
2023-08-29T16:48:05.507Z,53.26
2023-08-29T16:50:33.358Z,53.12
2023-08-29T16:53:00.743Z,53.08
2023-08-29T16:55:28.121Z,52.91
2023-08-29T16:57:56.588Z,52.85
2023-08-29T17:00:25.391Z,52.91
2023-08-29T17:02:52.680Z,52.82
2023-08-29T17:05:20.079Z,52.90
2023-08-29T17:07:47.403Z,52.74
2023-08-29T17:10:15.446Z,52.98
2023-08-29T17:12:42.998Z,52.83
2023-08-29T17:15:10.956Z,52.87
2023-08-29T17:17:38.374Z,52.74
2023-08-29T17:20:06.501Z,52.63
2023-08-29T17:22:34.063Z,52.69
2023-08-29T17:25:03.318Z,52.66
2023-08-29T17:27:30.716Z,52.68
2023-08-29T17:29:58.730Z,52.46
2023-08-29T17:32:26.105Z,52.57
2023-08-29T17:34:53.380Z,52.49
2023-08-29T17:37:20.652Z,52.44
2023-08-29T17:39:49.394Z,52.36
2023-08-29T17:42:16.916Z,52.41
2023-08-29T17:44:46.695Z,52.25
2023-08-29T17:47:16.265Z,52.26
2023-08-29T17:49:43.887Z,52.31
2023-08-29T17:52:11.810Z,52.42
2023-08-29T17:54:39.227Z,52.11
2023-08-29T17:57:06.536Z,52.16
2023-08-29T17:59:33.819Z,52.11
2023-08-29T18:02:01.173Z,52.27
2023-08-29T18:04:28.537Z,52.23
2023-08-29T18:06:56.037Z,52.20
2023-08-29T18:09:23.585Z,52.28
2023-08-29T18:11:51.348Z,52.08
2023-08-29T18:14:18.791Z,52.21
2023-08-29T18:16:47.024Z,52.16
2023-08-29T18:19:15.490Z,52.04
2023-08-29T18:21:43.113Z,52.19
2023-08-29T18:24:13.174Z,52.18
2023-08-29T18:26:40.685Z,52.17
2023-08-29T18:29:08.151Z,52.10
2023-08-29T18:31:35.624Z,52.00
2023-08-29T18:34:03.240Z,52.11
2023-08-29T18:36:30.732Z,51.99
2023-08-29T18:39:00.157Z,52.13
2023-08-29T18:41:27.659Z,52.01
2023-08-29T18:43:55.115Z,52.03
2023-08-29T18:46:22.588Z,51.99
2023-08-29T18:48:51.418Z,52.22
2023-08-29T18:51:18.928Z,51.87
2023-08-29T18:53:46.387Z,52.06
2023-08-29T18:56:17.148Z,51.94
2023-08-29T18:58:46.487Z,51.80
2023-08-29T19:01:14.443Z,51.74
2023-08-29T19:03:42.155Z,51.82
2023-08-29T19:06:11.808Z,51.70
2023-08-29T19:08:40.669Z,51.56
2023-08-29T19:11:08.270Z,51.47
2023-08-29T19:13:35.692Z,51.37
2023-08-29T19:16:05.445Z,50.99
2023-08-29T19:18:32.861Z,50.86
2023-08-29T19:21:00.177Z,50.76
2023-08-29T19:23:29.387Z,50.50
2023-08-29T19:25:57.147Z,50.70
2023-08-29T19:28:24.744Z,50.44
2023-08-29T19:30:55.635Z,50.26
2023-08-29T19:33:23.545Z,49.97
2023-08-29T19:35:51.192Z,49.89
2023-08-29T19:38:18.620Z,49.78
2023-08-29T19:40:45.997Z,49.95
2023-08-29T19:43:13.417Z,49.91
2023-08-29T19:45:40.635Z,49.98
2023-08-29T19:48:08.397Z,50.07
2023-08-29T19:50:35.986Z,50.17
2023-08-29T19:53:03.736Z,50.16
2023-08-29T19:55:31.253Z,50.11
2023-08-29T19:57:58.496Z,50.07
2023-08-29T20:00:26.274Z,50.13
2023-08-29T20:02:53.852Z,50.11
2023-08-29T20:05:21.440Z,49.99
2023-08-29T20:07:48.942Z,49.79
2023-08-29T20:10:16.684Z,49.98
2023-08-29T20:12:44.254Z,49.77
2023-08-29T20:15:11.904Z,49.96
2023-08-29T20:17:39.458Z,49.87
2023-08-29T20:20:07.901Z,49.81
2023-08-29T20:22:35.992Z,49.96
2023-08-29T20:25:07.366Z,49.85
2023-08-29T20:27:34.926Z,49.91
2023-08-29T20:30:02.380Z,49.93
2023-08-29T20:32:29.755Z,49.98
2023-08-29T20:34:57.568Z,49.95
2023-08-29T20:37:25.233Z,49.98
2023-08-29T20:39:52.711Z,49.79
2023-08-29T20:42:21.769Z,49.88
2023-08-29T20:44:49.110Z,49.85
2023-08-29T20:47:16.493Z,49.75
2023-08-29T20:49:43.819Z,49.87
2023-08-29T20:52:12.037Z,49.78
2023-08-29T20:54:39.597Z,49.71
2023-08-29T20:57:06.999Z,49.68
2023-08-29T20:59:34.275Z,49.77
2023-08-29T21:02:02.502Z,49.82
2023-08-29T21:04:32.986Z,49.57
2023-08-29T21:07:00.493Z,49.62
2023-08-29T21:09:27.732Z,49.58
2023-08-29T21:11:55.518Z,49.83
2023-08-29T21:14:23.032Z,49.57
2023-08-29T21:16:50.436Z,49.96
2023-08-29T21:19:17.827Z,49.94
2023-08-29T21:21:45.142Z,50.14
2023-08-29T21:24:12.389Z,50.19
2023-08-29T21:26:39.720Z,50.05
2023-08-29T21:29:08.508Z,50.24
2023-08-29T21:31:36.091Z,50.21
2023-08-29T21:34:03.483Z,50.11
2023-08-29T21:36:30.904Z,50.23
2023-08-29T21:38:58.233Z,49.94
2023-08-29T21:41:25.616Z,50.17
2023-08-29T21:43:53.191Z,49.98
2023-08-29T21:46:20.609Z,50.09
2023-08-29T21:48:47.980Z,49.96
2023-08-29T21:51:19.136Z,49.84
2023-08-29T21:53:46.561Z,49.80
2023-08-29T21:56:14.300Z,49.64
2023-08-29T21:58:41.686Z,49.78
2023-08-29T22:01:10.872Z,49.75
2023-08-29T22:03:38.421Z,49.84
2023-08-29T22:06:05.785Z,49.97
2023-08-29T22:08:33.315Z,49.83
2023-08-29T22:11:00.883Z,49.83
2023-08-29T22:13:29.608Z,49.99
2023-08-29T22:15:57.243Z,50.06
2023-08-29T22:18:26.004Z,49.95
2023-08-29T22:20:53.310Z,49.92
2023-08-29T22:23:20.606Z,49.80
2023-08-29T22:25:47.811Z,49.66
2023-08-29T22:28:15.429Z,49.85
2023-08-29T22:30:42.653Z,49.82
2023-08-29T22:33:10.572Z,49.72
2023-08-29T22:35:38.001Z,49.95
2023-08-29T22:38:05.289Z,49.83
2023-08-29T22:40:32.625Z,49.90
2023-08-29T22:42:59.909Z,49.86
2023-08-29T22:45:27.205Z,49.96
2023-08-29T22:47:54.452Z,49.92
2023-08-29T22:50:21.774Z,49.99
2023-08-29T22:52:49.159Z,49.72
2023-08-29T22:55:16.922Z,49.81
2023-08-29T22:57:44.227Z,49.95
2023-08-29T23:00:14.332Z,49.91
2023-08-29T23:02:41.806Z,49.80
2023-08-29T23:05:09.678Z,49.84
2023-08-29T23:07:37.461Z,49.79
2023-08-29T23:10:05.135Z,49.77
2023-08-29T23:12:32.437Z,49.65
2023-08-29T23:14:59.801Z,49.74
2023-08-29T23:17:27.164Z,49.62
2023-08-29T23:19:54.534Z,49.75
2023-08-29T23:22:21.900Z,49.57
2023-08-29T23:24:49.430Z,49.72
2023-08-29T23:27:16.772Z,49.63
2023-08-29T23:29:44.075Z,49.73
2023-08-29T23:32:11.513Z,49.70
2023-08-29T23:34:38.836Z,49.78
2023-08-29T23:37:06.089Z,49.80
2023-08-29T23:39:33.384Z,49.70
2023-08-29T23:42:01.122Z,49.76
2023-08-29T23:44:28.565Z,49.77
2023-08-29T23:46:57.495Z,49.88
2023-08-29T23:49:26.079Z,49.76
2023-08-29T23:51:53.352Z,49.86
2023-08-29T23:54:20.743Z,49.87
2023-08-29T23:56:48.143Z,49.84
2023-08-29T23:59:15.408Z,49.98
